createdAt,value
2022-11-21T00:00:52.232Z,-3.30
2022-11-21T00:03:18.771Z,-3.31
2022-11-21T00:05:47.491Z,-3.51
2022-11-21T00:08:16.858Z,-3.27
2022-11-21T00:10:43.849Z,-3.60
2022-11-21T00:13:16.207Z,-2.95
2022-11-21T00:15:43.820Z,-2.82
2022-11-21T00:18:13.991Z,-2.82
2022-11-21T00:20:41.936Z,-2.97
2022-11-21T00:23:08.978Z,-2.98
2022-11-21T00:25:36.181Z,-3.13
2022-11-21T00:28:02.966Z,-2.95
2022-11-21T00:30:29.507Z,-2.60
2022-11-21T00:32:57.906Z,-2.39
2022-11-21T00:35:24.367Z,-2.36
2022-11-21T00:37:50.904Z,-2.29
2022-11-21T00:40:18.176Z,-2.27
2022-11-21T00:42:44.778Z,-2.34
2022-11-21T00:45:12.013Z,-2.25
2022-11-21T00:47:38.466Z,-2.16
2022-11-21T00:50:05.265Z,-2.16
2022-11-21T00:52:31.704Z,-2.08
2022-11-21T00:54:58.204Z,-2.16
2022-11-21T00:57:24.720Z,-2.22
2022-11-21T00:59:51.146Z,-2.19
2022-11-21T01:02:17.703Z,-2.23
2022-11-21T01:04:44.337Z,-2.22
2022-11-21T01:07:13.420Z,-2.31
2022-11-21T01:09:39.945Z,-2.13
2022-11-21T01:12:06.513Z,-2.05
2022-11-21T01:14:32.933Z,-2.16
2022-11-21T01:16:59.529Z,-2.03
2022-11-21T01:19:25.998Z,-2.02
2022-11-21T01:21:52.459Z,-2.12
2022-11-21T01:24:18.881Z,-2.43
2022-11-21T01:26:45.304Z,-2.92
2022-11-21T01:29:11.842Z,-3.22
2022-11-21T01:31:38.286Z,-2.76
2022-11-21T01:34:04.755Z,-2.35
2022-11-21T01:36:33.422Z,-2.44
2022-11-21T01:39:05.474Z,-2.18
2022-11-21T01:41:35.539Z,-2.22
2022-11-21T01:44:07.153Z,-2.18
2022-11-21T01:46:33.553Z,-2.14
2022-11-21T01:48:59.934Z,-2.18
2022-11-21T01:51:32.999Z,-2.00
2022-11-21T01:54:14.374Z,-2.03
2022-11-21T01:56:59.551Z,-2.31
2022-11-21T01:59:34.675Z,-2.37
2022-11-21T02:02:03.675Z,-3.02
2022-11-21T02:04:32.809Z,-3.40
2022-11-21T02:07:24.824Z,-3.16
2022-11-21T02:09:56.734Z,-3.01
2022-11-21T02:12:29.906Z,-2.80
2022-11-21T02:14:57.651Z,-2.95
2022-11-21T02:17:26.635Z,-2.63
2022-11-21T02:19:57.662Z,-2.57
2022-11-21T02:22:32.881Z,-2.34
2022-11-21T02:25:15.687Z,-2.19
2022-11-21T02:27:42.414Z,-2.18
2022-11-21T02:30:10.506Z,-2.04
2022-11-21T02:32:45.181Z,-2.22
2022-11-21T02:35:11.595Z,-2.28
2022-11-21T02:37:38.063Z,-2.31
2022-11-21T02:40:12.838Z,-2.19
2022-11-21T02:42:52.899Z,-2.17
2022-11-21T02:45:33.179Z,-2.26
2022-11-21T02:48:03.985Z,-2.27
2022-11-21T02:50:36.261Z,-2.33
2022-11-21T02:53:04.858Z,-2.44
2022-11-21T02:55:31.674Z,-2.43
2022-11-21T02:58:03.215Z,-2.34
2022-11-21T03:00:32.123Z,-2.33
2022-11-21T03:02:58.509Z,-2.39
2022-11-21T03:05:25.093Z,-2.46
2022-11-21T03:07:51.530Z,-2.51
2022-11-21T03:10:18.008Z,-2.66
2022-11-21T03:12:44.579Z,-2.64
2022-11-21T03:15:13.489Z,-2.65
2022-11-21T03:17:40.778Z,-2.77
2022-11-21T03:20:08.280Z,-2.72
2022-11-21T03:22:35.004Z,-2.78
2022-11-21T03:25:01.520Z,-2.69
2022-11-21T03:27:28.144Z,-2.72
2022-11-21T03:29:54.555Z,-2.60
2022-11-21T03:32:20.973Z,-2.68
2022-11-21T03:34:47.396Z,-2.59
2022-11-21T03:37:13.772Z,-2.40
2022-11-21T03:39:40.176Z,-2.42
2022-11-21T03:42:06.599Z,-2.43
2022-11-21T03:44:33.124Z,-2.38
2022-11-21T03:46:59.515Z,-2.46
2022-11-21T03:49:25.923Z,-3.08
2022-11-21T03:51:52.361Z,-2.59
2022-11-21T03:54:18.800Z,-2.54
2022-11-21T03:56:45.278Z,-2.68
2022-11-21T03:59:11.833Z,-2.87
2022-11-21T04:01:38.707Z,-2.53
2022-11-21T04:04:05.652Z,-3.12
2022-11-21T04:06:32.257Z,-2.68
2022-11-21T04:08:58.669Z,-3.20
2022-11-21T04:11:25.257Z,-2.76
2022-11-21T04:13:54.470Z,-2.54
2022-11-21T04:16:21.188Z,-2.82
2022-11-21T04:18:47.823Z,-2.33
2022-11-21T04:21:14.374Z,-2.17
2022-11-21T04:23:40.935Z,-2.14
2022-11-21T04:26:07.386Z,-2.23
2022-11-21T04:28:33.828Z,-2.33
2022-11-21T04:31:09.953Z,-2.35
2022-11-21T04:33:37.527Z,-2.16
2022-11-21T04:36:04.082Z,-2.07
2022-11-21T04:38:30.542Z,-2.21
2022-11-21T04:40:56.984Z,-2.25
2022-11-21T04:43:23.410Z,-2.19
2022-11-21T04:45:49.949Z,-2.21
2022-11-21T04:48:16.501Z,-2.28
2022-11-21T04:50:42.946Z,-2.19
2022-11-21T04:53:09.362Z,-2.18
2022-11-21T04:55:35.774Z,-2.12
2022-11-21T04:58:02.194Z,-2.08
2022-11-21T05:00:28.943Z,-2.10
2022-11-21T05:02:55.397Z,-2.07
2022-11-21T05:05:21.806Z,-2.04
2022-11-21T05:07:48.210Z,-2.00
2022-11-21T05:10:14.845Z,-1.93
2022-11-21T05:12:59.760Z,-1.94
2022-11-21T05:15:26.244Z,-1.93
2022-11-21T05:17:52.656Z,-1.87
2022-11-21T05:20:19.285Z,-1.93
2022-11-21T05:22:49.904Z,-1.85
2022-11-21T05:25:16.752Z,-1.83
2022-11-21T05:27:43.250Z,-1.89
2022-11-21T05:30:11.022Z,-1.82
2022-11-21T05:32:37.828Z,-1.82
2022-11-21T05:35:04.399Z,-1.94
2022-11-21T05:37:30.965Z,-1.79
2022-11-21T05:39:57.467Z,-1.77
2022-11-21T05:42:43.849Z,-1.80
2022-11-21T05:45:10.675Z,-1.76
2022-11-21T05:47:37.248Z,-1.74
2022-11-21T05:50:04.163Z,-1.76
2022-11-21T05:52:30.716Z,-1.76
2022-11-21T05:54:57.128Z,-1.74
2022-11-21T05:57:23.552Z,-1.71
2022-11-21T05:59:49.948Z,-1.67
2022-11-21T06:02:35.038Z,-1.64
2022-11-21T06:05:01.469Z,-1.59
2022-11-21T06:07:28.179Z,-1.61
2022-11-21T06:09:54.616Z,-1.58
2022-11-21T06:12:25.207Z,-1.63
2022-11-21T06:14:52.198Z,-1.87
2022-11-21T06:17:18.669Z,-1.72
2022-11-21T06:19:45.144Z,-1.65
2022-11-21T06:22:11.556Z,-1.65
2022-11-21T06:24:37.977Z,-1.59
2022-11-21T06:27:04.393Z,-1.57
2022-11-21T06:29:30.836Z,-1.60
2022-11-21T06:31:57.286Z,-1.52
2022-11-21T06:34:26.313Z,-1.52
2022-11-21T06:36:53.433Z,-1.51
2022-11-21T06:39:19.973Z,-1.50
2022-11-21T06:41:51.153Z,-1.51
2022-11-21T06:44:18.559Z,-1.53
2022-11-21T06:46:50.668Z,-1.48
2022-11-21T06:49:17.707Z,-1.51
2022-11-21T06:51:44.295Z,-1.42
2022-11-21T06:54:16.259Z,-1.36
2022-11-21T06:56:43.487Z,-1.32
2022-11-21T06:59:10.029Z,-1.28
2022-11-21T07:01:36.616Z,-1.31
2022-11-21T07:04:03.099Z,-1.42
2022-11-21T07:06:29.525Z,-1.35
2022-11-21T07:09:25.221Z,-1.31
2022-11-21T07:11:43.061Z,-1.44
2022-11-21T07:14:09.764Z,-1.29
2022-11-21T07:16:36.687Z,-1.27
2022-11-21T07:19:03.255Z,-1.24
2022-11-21T07:21:29.727Z,-1.39
2022-11-21T07:23:56.207Z,-1.30
2022-11-21T07:26:22.605Z,-1.27
2022-11-21T07:28:49.107Z,-1.32
2022-11-21T07:31:15.718Z,-1.29
2022-11-21T07:33:46.746Z,-1.29
2022-11-21T07:36:13.649Z,-1.24
2022-11-21T07:38:41.475Z,-1.23
2022-11-21T07:41:08.635Z,-1.23
2022-11-21T07:43:35.091Z,-1.08
2022-11-21T07:46:01.562Z,-1.28
2022-11-21T07:48:28.021Z,-1.12
2022-11-21T07:50:54.417Z,-1.16
2022-11-21T07:53:20.917Z,-1.35
2022-11-21T07:55:47.398Z,-1.04
2022-11-21T07:58:16.038Z,-0.99
2022-11-21T08:00:45.156Z,-0.87
2022-11-21T08:03:12.822Z,-0.99
2022-11-21T08:05:42.443Z,-1.03
2022-11-21T08:08:10.459Z,-1.11
2022-11-21T08:10:38.893Z,-1.03
2022-11-21T08:13:05.712Z,-1.20
2022-11-21T08:15:32.501Z,-1.72
2022-11-21T08:17:59.035Z,-1.79
2022-11-21T08:20:25.478Z,-1.77
2022-11-21T08:22:51.949Z,-1.63
2022-11-21T08:25:18.358Z,-1.45
2022-11-21T08:27:44.909Z,-1.51
2022-11-21T08:30:12.197Z,-1.50
2022-11-21T08:32:38.668Z,-1.51
2022-11-21T08:35:05.561Z,-1.43
2022-11-21T08:37:32.167Z,-1.35
2022-11-21T08:39:59.003Z,-1.68
2022-11-21T08:42:26.008Z,-1.95
2022-11-21T08:44:52.523Z,-1.59
2022-11-21T08:47:20.425Z,-1.89
2022-11-21T08:49:47.775Z,-2.27
2022-11-21T08:52:17.472Z,-2.23
2022-11-21T08:54:45.322Z,-1.86
2022-11-21T08:57:12.625Z,-1.91
2022-11-21T08:59:39.189Z,-2.07
2022-11-21T09:02:05.692Z,-1.98
2022-11-21T09:04:32.243Z,-1.89
2022-11-21T09:06:58.710Z,-1.80
2022-11-21T09:09:25.783Z,-2.14
2022-11-21T09:11:52.446Z,-1.89
2022-11-21T09:14:37.866Z,-1.89
2022-11-21T09:17:23.048Z,-1.74
2022-11-21T09:19:49.537Z,-1.68
2022-11-21T09:22:15.924Z,-1.84
2022-11-21T09:24:42.337Z,-1.76
2022-11-21T09:27:08.753Z,-1.80
2022-11-21T09:29:35.172Z,-1.88
2022-11-21T09:32:01.599Z,-2.03
2022-11-21T09:34:28.242Z,-2.21
2022-11-21T09:36:55.528Z,-2.43
2022-11-21T09:39:22.229Z,-2.28
2022-11-21T09:42:03.644Z,-2.11
2022-11-21T09:44:39.228Z,-2.16
2022-11-21T09:47:20.096Z,-2.09
2022-11-21T09:49:51.514Z,-1.90
2022-11-21T09:52:19.198Z,-1.99
2022-11-21T09:54:53.635Z,-1.89
2022-11-21T09:57:24.432Z,-1.91
2022-11-21T09:59:52.052Z,-2.16
2022-11-21T10:02:21.399Z,-1.90
2022-11-21T10:04:48.794Z,-2.11
2022-11-21T10:07:29.211Z,-1.83
2022-11-21T10:10:01.283Z,-1.69
2022-11-21T10:13:00.132Z,-1.60
2022-11-21T10:15:52.470Z,-1.73
2022-11-21T10:18:52.709Z,-1.69
2022-11-21T10:21:48.878Z,-1.65
2022-11-21T10:24:30.915Z,-1.60
2022-11-21T10:27:11.692Z,-2.12
2022-11-21T10:29:53.206Z,-1.97
2022-11-21T10:32:37.422Z,-1.91
2022-11-21T10:35:22.112Z,-1.71
2022-11-21T10:37:52.673Z,-1.99
2022-11-21T10:40:43.657Z,-1.80
2022-11-21T10:43:34.819Z,-1.72
2022-11-21T10:46:01.263Z,-1.71
2022-11-21T10:48:27.686Z,-1.58
2022-11-21T10:51:25.116Z,-1.84
2022-11-21T10:54:29.116Z,-2.06
2022-11-21T10:57:06.090Z,-2.14
2022-11-21T10:59:32.690Z,-2.05
2022-11-21T11:02:12.794Z,-1.84
2022-11-21T11:04:47.416Z,-1.65
2022-11-21T11:07:27.653Z,-1.71
2022-11-21T11:10:27.547Z,-1.86
2022-11-21T11:13:44.004Z,-1.82
2022-11-21T11:16:18.456Z,-1.60
2022-11-21T11:18:51.629Z,-1.81
2022-11-21T11:21:24.761Z,-2.00
2022-11-21T11:23:53.463Z,-1.76
2022-11-21T11:26:31.387Z,-1.60
2022-11-21T11:29:15.631Z,-1.51
2022-11-21T11:31:44.013Z,-1.44
2022-11-21T11:34:15.138Z,-1.31
2022-11-21T11:36:50.497Z,-1.27
2022-11-21T11:39:24.922Z,-1.38
2022-11-21T11:42:39.679Z,-1.48
2022-11-21T11:45:30.847Z,-2.14
2022-11-21T11:48:01.406Z,-2.39
2022-11-21T11:50:43.712Z,-1.91
2022-11-21T11:53:35.032Z,-1.52
2022-11-21T11:56:18.769Z,-1.82
2022-11-21T11:58:54.871Z,-1.96
2022-11-21T12:01:25.231Z,-1.63
2022-11-21T12:04:00.014Z,-1.70
2022-11-21T12:06:57.362Z,-1.88
2022-11-21T12:09:39.820Z,-1.89
2022-11-21T12:12:16.248Z,-1.64
2022-11-21T12:15:18.237Z,-1.74
2022-11-21T12:18:15.352Z,-1.47
2022-11-21T12:21:02.777Z,-1.81
2022-11-21T12:23:36.803Z,-1.59
2022-11-21T12:26:28.109Z,-1.82
2022-11-21T12:29:32.512Z,-1.70
2022-11-21T12:32:09.050Z,-1.62
2022-11-21T12:34:41.305Z,-1.70
2022-11-21T12:37:44.661Z,-1.62
2022-11-21T12:40:46.202Z,-1.44
2022-11-21T12:43:19.170Z,-1.34
2022-11-21T12:45:52.800Z,-1.32
2022-11-21T12:48:59.064Z,-1.30
2022-11-21T12:51:50.650Z,-1.44
2022-11-21T12:54:33.230Z,-1.29
2022-11-21T12:57:13.978Z,-1.38
2022-11-21T12:59:49.649Z,-1.37
2022-11-21T13:02:29.425Z,-1.37
2022-11-21T13:04:58.439Z,-1.53
2022-11-21T13:07:29.570Z,-1.64
2022-11-21T13:09:59.030Z,-1.48
2022-11-21T13:13:02.717Z,-1.55
2022-11-21T13:15:40.482Z,-2.06
2022-11-21T13:18:41.729Z,-1.88
2022-11-21T13:21:41.531Z,-1.41
2022-11-21T13:24:08.684Z,-1.88
2022-11-21T13:26:37.937Z,-1.84
2022-11-21T13:29:14.540Z,-1.90
2022-11-21T13:31:41.873Z,-1.66
2022-11-21T13:34:37.341Z,-1.60
2022-11-21T13:37:05.183Z,-1.45
2022-11-21T13:39:33.915Z,-1.53
2022-11-21T13:42:20.906Z,-1.69
2022-11-21T13:44:48.121Z,-1.58
2022-11-21T13:47:26.393Z,-1.48
2022-11-21T13:50:05.408Z,-1.77
2022-11-21T13:52:49.544Z,-1.51
2022-11-21T13:55:54.840Z,-2.78
2022-11-21T13:58:48.862Z,-2.27
2022-11-21T14:01:27.540Z,-1.78
2022-11-21T14:04:12.923Z,-1.53
2022-11-21T14:06:43.416Z,-1.44
2022-11-21T14:09:13.048Z,-1.48
2022-11-21T14:11:48.091Z,-1.88
2022-11-21T14:14:49.699Z,-2.05
2022-11-21T14:17:47.296Z,-2.27
2022-11-21T14:20:22.470Z,-1.89
2022-11-21T14:23:00.273Z,-1.76
2022-11-21T14:25:49.314Z,-1.82
2022-11-21T14:28:25.188Z,-2.32
2022-11-21T14:31:00.141Z,-2.55
2022-11-21T14:33:33.595Z,-2.42
2022-11-21T14:36:03.220Z,-2.04
2022-11-21T14:38:33.011Z,-2.00
2022-11-21T14:41:26.790Z,-2.06
2022-11-21T14:43:58.972Z,-2.31
2022-11-21T14:46:27.570Z,-3.69
2022-11-21T14:48:54.565Z,-2.85
2022-11-21T14:51:24.213Z,-2.65
2022-11-21T14:53:53.573Z,-2.21
2022-11-21T14:56:23.421Z,-2.96
2022-11-21T14:58:51.608Z,-2.47
2022-11-21T15:01:21.950Z,-2.19
2022-11-21T15:04:04.310Z,-2.18
2022-11-21T15:06:39.703Z,-2.68
2022-11-21T15:12:02.441Z,-2.59
2022-11-21T15:15:13.239Z,-2.75
2022-11-21T15:18:03.391Z,-3.02
2022-11-21T15:20:28.214Z,-3.39
2022-11-21T15:22:57.566Z,-2.92
2022-11-21T15:25:47.328Z,-2.57
2022-11-21T15:28:18.287Z,-2.65
2022-11-21T15:30:45.520Z,-2.38
2022-11-21T15:33:17.533Z,-3.05
2022-11-21T15:36:13.821Z,-2.89
2022-11-21T15:38:53.456Z,-2.76
2022-11-21T15:41:19.814Z,-2.53
2022-11-21T15:43:52.241Z,-2.94
2022-11-21T15:46:25.464Z,-3.63
2022-11-21T15:48:55.697Z,-3.50
2022-11-21T15:52:06.217Z,-2.98
2022-11-21T15:54:28.634Z,-3.00
2022-11-21T15:56:55.363Z,-3.26
2022-11-21T15:59:21.783Z,-3.05
2022-11-21T16:01:48.207Z,-2.85
2022-11-21T16:04:14.934Z,-3.13
2022-11-21T16:06:41.550Z,-2.68
2022-11-21T16:09:07.987Z,-3.34
2022-11-21T16:11:43.570Z,-2.82
2022-11-21T16:14:14.266Z,-2.97
2022-11-21T16:16:43.713Z,-2.78
2022-11-21T16:19:11.985Z,-2.43
2022-11-21T16:21:38.906Z,-2.51
2022-11-21T16:24:05.821Z,-2.51
2022-11-21T16:26:33.380Z,-2.52
2022-11-21T16:29:01.047Z,-2.44
2022-11-21T16:31:29.801Z,-2.54
2022-11-21T16:33:56.627Z,-2.48
2022-11-21T16:36:27.180Z,-2.42
2022-11-21T16:38:53.935Z,-2.41
2022-11-21T16:41:22.494Z,-2.35
2022-11-21T16:43:51.302Z,-2.45
2022-11-21T16:46:18.944Z,-2.54
2022-11-21T16:48:45.577Z,-2.43
2022-11-21T16:51:20.213Z,-2.38
2022-11-21T16:53:49.173Z,-2.60
2022-11-21T16:56:16.595Z,-2.54
2022-11-21T16:58:43.283Z,-2.33
2022-11-21T17:01:12.620Z,-2.58
2022-11-21T17:03:40.546Z,-2.55
2022-11-21T17:06:08.025Z,-2.58
2022-11-21T17:08:35.283Z,-2.55
2022-11-21T17:11:11.675Z,-2.46
2022-11-21T17:13:38.194Z,-2.68
2022-11-21T17:16:07.896Z,-2.81
2022-11-21T17:18:34.347Z,-2.73
2022-11-21T17:21:05.266Z,-2.72
2022-11-21T17:23:32.838Z,-2.69
2022-11-21T17:26:04.188Z,-2.76
2022-11-21T17:28:30.640Z,-2.80
2022-11-21T17:30:57.198Z,-2.85
2022-11-21T17:33:23.915Z,-2.95
2022-11-21T17:35:50.733Z,-2.86
2022-11-21T17:38:17.408Z,-2.93
2022-11-21T17:40:44.075Z,-2.90
2022-11-21T17:43:10.611Z,-2.82
2022-11-21T17:45:37.046Z,-2.91
2022-11-21T17:48:03.603Z,-2.79
2022-11-21T17:50:30.062Z,-2.89
2022-11-21T17:52:57.123Z,-2.86
2022-11-21T17:55:23.515Z,-2.99
2022-11-21T17:57:49.985Z,-3.06
2022-11-21T18:00:16.496Z,-2.84
2022-11-21T18:02:43.096Z,-2.86
2022-11-21T18:05:09.706Z,-2.95
2022-11-21T18:07:37.642Z,-2.81
2022-11-21T18:10:20.822Z,-2.98
2022-11-21T18:12:51.492Z,-2.98
2022-11-21T18:15:18.066Z,-2.84
2022-11-21T18:17:44.738Z,-2.96
2022-11-21T18:20:11.467Z,-2.74
2022-11-21T18:22:37.848Z,-2.62
2022-11-21T18:25:04.550Z,-2.74
2022-11-21T18:27:31.030Z,-2.55
2022-11-21T18:29:57.424Z,-2.57
2022-11-21T18:32:24.068Z,-2.58
2022-11-21T18:34:50.533Z,-2.62
2022-11-21T18:37:16.924Z,-2.86
2022-11-21T18:39:43.352Z,-2.58
2022-11-21T18:42:09.766Z,-2.65
2022-11-21T18:44:36.153Z,-2.58
2022-11-21T18:47:11.972Z,-2.64
2022-11-21T18:49:45.976Z,-2.80
2022-11-21T18:52:12.364Z,-2.72
2022-11-21T18:54:39.907Z,-2.62
2022-11-21T18:57:06.361Z,-2.59
2022-11-21T18:59:32.787Z,-2.48
2022-11-21T19:01:59.286Z,-2.53
2022-11-21T19:04:25.843Z,-2.64
2022-11-21T19:06:52.314Z,-2.67
2022-11-21T19:09:18.853Z,-2.56
2022-11-21T19:11:45.361Z,-2.51
2022-11-21T19:14:11.845Z,-2.67
2022-11-21T19:16:38.349Z,-2.59
2022-11-21T19:21:56.963Z,-2.54
2022-11-21T19:24:24.475Z,-2.46
2022-11-21T19:26:51.013Z,-2.48
2022-11-21T19:29:17.741Z,-2.50
2022-11-21T19:31:46.009Z,-2.61
2022-11-21T19:34:16.548Z,-2.72
2022-11-21T19:36:43.352Z,-2.81
2022-11-21T19:39:09.960Z,-2.68
2022-11-21T19:41:36.796Z,-2.73
2022-11-21T19:44:03.854Z,-2.69
2022-11-21T19:46:36.727Z,-2.60
2022-11-21T19:49:04.057Z,-2.70
2022-11-21T19:51:33.554Z,-2.69
2022-11-21T19:54:02.281Z,-2.63
2022-11-21T19:56:28.891Z,-2.73
2022-11-21T19:58:56.834Z,-2.69
2022-11-21T20:01:25.807Z,-2.47
2022-11-21T20:03:54.940Z,-2.67
2022-11-21T20:06:24.500Z,-2.48
2022-11-21T20:08:54.035Z,-2.45
2022-11-21T20:11:21.463Z,-2.25
2022-11-21T20:13:49.258Z,-2.36
2022-11-21T20:16:19.935Z,-2.43
2022-11-21T20:18:46.868Z,-2.28
2022-11-21T20:21:14.067Z,-2.27
2022-11-21T20:23:40.556Z,-2.39
2022-11-21T20:26:08.856Z,-2.50
2022-11-21T20:28:36.686Z,-2.37
2022-11-21T20:31:19.721Z,-2.33
2022-11-21T20:33:51.429Z,-2.14
2022-11-21T20:36:20.318Z,-2.25
2022-11-21T20:39:00.937Z,-2.27
2022-11-21T20:41:30.216Z,-2.31
2022-11-21T20:46:45.518Z,-2.26
2022-11-21T20:49:12.560Z,-2.34
2022-11-21T20:54:26.591Z,-2.49
2022-11-21T20:56:53.188Z,-2.46
2022-11-21T20:59:19.583Z,-2.29
2022-11-21T21:01:46.092Z,-2.17
2022-11-21T21:04:12.542Z,-2.35
2022-11-21T21:06:39.547Z,-2.58
2022-11-21T21:09:06.078Z,-2.37
2022-11-21T21:14:19.150Z,-2.42
2022-11-21T21:16:45.709Z,-2.70
2022-11-21T21:19:12.110Z,-3.01
2022-11-21T21:21:40.178Z,-2.71
2022-11-21T21:24:09.566Z,-2.61
2022-11-21T21:26:43.223Z,-2.79
2022-11-21T21:29:12.244Z,-2.82
2022-11-21T21:31:38.989Z,-2.81
2022-11-21T21:34:05.448Z,-2.92
2022-11-21T21:36:32.425Z,-2.36
2022-11-21T21:38:59.978Z,-2.57
2022-11-21T21:41:27.972Z,-2.39
2022-11-21T21:43:55.856Z,-2.36
2022-11-21T21:46:24.492Z,-2.44
2022-11-21T21:48:56.321Z,-2.17
2022-11-21T21:51:22.779Z,-2.13
2022-11-21T21:53:50.794Z,-2.24
2022-11-21T21:56:18.673Z,-2.11
2022-11-21T21:58:47.164Z,-2.34
2022-11-21T22:01:22.834Z,-2.08
2022-11-21T22:03:53.022Z,-2.26
2022-11-21T22:06:19.833Z,-2.37
2022-11-21T22:08:47.989Z,-2.40
2022-11-21T22:11:17.165Z,-2.48
2022-11-21T22:13:45.961Z,-2.51
2022-11-21T22:16:13.174Z,-2.59
2022-11-21T22:18:40.511Z,-2.53
2022-11-21T22:21:17.681Z,-2.64
2022-11-21T22:24:02.911Z,-2.39
2022-11-21T22:26:31.474Z,-2.58
2022-11-21T22:28:57.961Z,-2.84
2022-11-21T22:31:24.437Z,-2.68
2022-11-21T22:33:50.896Z,-2.71
2022-11-21T22:36:18.632Z,-2.73
2022-11-21T22:38:45.258Z,-2.78
2022-11-21T22:41:17.167Z,-2.74
2022-11-21T22:43:44.918Z,-2.90
2022-11-21T22:46:12.799Z,-2.78
2022-11-21T22:48:40.231Z,-2.77
2022-11-21T22:51:07.395Z,-2.89
2022-11-21T22:53:39.759Z,-2.89
2022-11-21T22:56:10.948Z,-2.85
2022-11-21T22:58:39.626Z,-3.14
2022-11-21T23:01:10.682Z,-3.11
2022-11-21T23:03:37.306Z,-3.19
2022-11-21T23:06:12.089Z,-3.19
2022-11-21T23:08:39.917Z,-3.33
2022-11-21T23:11:18.017Z,-3.37
2022-11-21T23:13:46.372Z,-3.34
2022-11-21T23:16:13.516Z,-3.35
2022-11-21T23:18:40.453Z,-3.35
2022-11-21T23:21:07.597Z,-3.44
2022-11-21T23:23:34.474Z,-3.48
2022-11-21T23:26:01.118Z,-3.37
2022-11-21T23:28:27.632Z,-3.30
2022-11-21T23:30:54.992Z,-3.39
2022-11-21T23:33:21.737Z,-3.47
2022-11-21T23:35:48.453Z,-3.38
2022-11-21T23:38:16.418Z,-3.35
2022-11-21T23:40:45.209Z,-3.31
2022-11-21T23:43:12.180Z,-3.28
2022-11-21T23:45:38.940Z,-3.34
2022-11-21T23:48:05.467Z,-3.40
2022-11-21T23:50:31.952Z,-3.29
2022-11-21T23:52:58.506Z,-3.24
2022-11-21T23:55:24.900Z,-3.31
2022-11-21T23:57:51.654Z,-3.49
